Terminal Aerodrome Forecast
Issued by NWS Twin Cities, MN

Home | Current Version | Previous Version | Graphics & Text | Print | Product List | Glossary On
Versions: 1 2 3 4 5 6 7 8 9 10 11 12 13 14 15 16 17 18 19 20 21 22 23 24 25 26
965
FTUS43 KMPX 271130
TAFMSP
TAF
KMSP 271130Z 2712/2818 25003KT P6SM SCT250
     FM271500 26008KT P6SM OVC100
     FM280100 22005KT P6SM SCT200
     FM281000 23005KT P6SM BKN080
     FM281500 30011G18KT P6SM SCT050=

USA.gov is the U.S. government's official web portal to all federal, state and local government web resources and services.